• Join FlightAware (Why Join?)
  • Login
  • US Flag 
08:39PM EDT


 

Airport Tracker/Info


-or-


 

Live Flight TrackerFlight Track Log ✈ N431DB ✈ 11-Jul-2013 ✈ KBDH - KDIK

Flight Track Log - Related Links

Times and Time Zones

All times are in EDT time to prevent confusion due to time zone crossing. See the N431DB flight status page for this flight to view local times or setup timezone preferences in your user account.

Time Position Orientation Groundspeed Altitude Reporting Facility
EDT Latitude Longitude Course Direction KTS MPH feet Rate Location/Type
08:08AM 45.1153 -95.1686 289° West 167 192 3,000  Level Minneapolis Center
08:09AM 45.1256 -95.2108 289° West 118 136 4,000 960 Climbing Minneapolis Center
08:10AM 45.1344 -95.2514 287° West 113 130 5,000 840 Climbing Minneapolis Center
08:11AM 45.1453 -95.2931 290° West 113 130 5,800 720 Climbing Minneapolis Center
08:12AM 45.1569 -95.3442 288° West 113 130 6,700 780 Climbing Minneapolis Center
08:13AM 45.1700 -95.3939 290° West 113 130 7,600 780 Climbing Minneapolis Center
08:14AM 45.1800 -95.4319 290° West 107 123 8,400 720 Climbing Minneapolis Center
08:15AM 45.1881 -95.4664 288° West 97 112 9,100 660 Climbing Minneapolis Center
08:16AM 45.1969 -95.4983 292° West 90 104 9,800 480 Climbing Minneapolis Center
08:17AM 45.2058 -95.5306 291° West 88 101 10,100 120 Climbing Minneapolis Center
08:18AM 45.2178 -95.5742 291° West 108 124 10,100  Level Minneapolis Center
08:20AM 45.2336 -95.6389 289° West 138 159 10,100  Level Minneapolis Center
08:21AM 45.2461 -95.6922 288° West 142 163 10,100  Level Minneapolis Center
08:22AM 45.2608 -95.7469 291° West 145 167 10,100  Level Minneapolis Center
08:23AM 45.2747 -95.8011 290° West 147 169 10,100  Level Minneapolis Center
08:24AM 45.2878 -95.8536 289° West 145 167 10,100  Level Minneapolis Center
08:25AM 45.3014 -95.9089 289° West 148 170 10,100  Level Minneapolis Center
08:26AM 45.3208 -95.9844 290° West 145 167 10,100  Level Minneapolis Center
08:27AM 45.3347 -96.0392 290° West 147 169 10,100  Level Minneapolis Center
08:28AM 45.3492 -96.0953 290° West 149 171 10,100  Level Minneapolis Center
08:29AM 45.3614 -96.1497 288° West 148 170 10,100 -60 Level Minneapolis Center
08:30AM 45.3761 -96.2033 291° West 147 169 10,000  Descending Minneapolis Center
08:31AM 45.3889 -96.2581 288° West 146 168 10,100  Climbing Minneapolis Center
08:32AM 45.4058 -96.3214 291° West 146 168 10,100  Level Minneapolis Center
08:33AM 45.4214 -96.3894 288° West 148 170 10,100  Level Minneapolis Center
08:34AM 45.4344 -96.4453 288° West 151 174 10,100  Level Minneapolis Center
08:35AM 45.4486 -96.5025 289° West 151 174 10,100 -60 Level Minneapolis Center
08:36AM 45.4628 -96.5558 291° West 148 170 10,000 -60 Descending Minneapolis Center
08:37AM 45.4778 -96.6236 288° West 150 173 10,000  Level Minneapolis Center
08:39AM 45.4919 -96.6797 290° West 150 173 10,000  Level Minneapolis Center
08:40AM 45.5061 -96.7372 289° West 151 174 10,000  Level Minneapolis Center
08:41AM 45.5200 -96.7950 289° West 153 176 10,000  Level Minneapolis Center
08:42AM 45.5347 -96.8517 290° West 153 176 10,000  Level Minneapolis Center
08:43AM 45.5486 -96.9083 289° West 153 176 10,000  Level Minneapolis Center
08:44AM 45.5661 -96.9767 290° West 153 176 10,000  Level Minneapolis Center
08:45AM 45.5814 -97.0317 292° West 152 175 10,000  Level Minneapolis Center
08:46AM 45.5944 -97.0922 287° West 153 176 10,000  Level Minneapolis Center
08:47AM 45.6069 -97.1531 286° West 157 181 10,000  Level Minneapolis Center
08:48AM 45.6206 -97.2139 288° West 158 182 10,000  Level Minneapolis Center
08:49AM 45.6347 -97.2722 289° West 159 183 10,000  Level Minneapolis Center
08:50AM 45.6508 -97.3417 288° West 156 180 10,000  Level Minneapolis Center
08:51AM 45.6669 -97.4083 289° West 152 175 10,000  Level Minneapolis Center
08:52AM 45.6817 -97.4603 292° West 147 169 10,000  Level Minneapolis Center
08:53AM 45.6942 -97.5156 288° West 147 169 10,000  Level Minneapolis Center
08:54AM 45.7083 -97.5736 289° West 150 173 10,000  Level Minneapolis Center
08:55AM 45.7206 -97.6275 288° West 148 170 10,000  Level Minneapolis Center
08:56AM 45.7367 -97.6936 289° West 147 169 10,000  Level Minneapolis Center
08:57AM 45.7494 -97.7503 288° West 149 171 10,000  Level Minneapolis Center
08:58AM 45.7625 -97.8075 288° West 150 173 10,000  Level Minneapolis Center
08:59AM 45.7753 -97.8653 288° West 153 176 10,000  Level Minneapolis Center
09:00AM 45.7900 -97.9206 291° West 150 173 10,000  Level Minneapolis Center
09:01AM 45.8025 -97.9794 287° West 153 176 10,000  Level Minneapolis Center
09:02AM 45.8156 -98.0381 288° West 152 175 10,000  Level Minneapolis Center
09:04AM 45.8331 -98.1081 290° West 154 177 10,000  Level Minneapolis Center
09:05AM 45.8489 -98.1692 290° West 156 180 10,000  Level Minneapolis Center
09:06AM 45.8617 -98.2278 287° West 157 181 10,000 60 Level Minneapolis Center
09:07AM 45.8744 -98.2847 288° West 156 180 10,200 60 Climbing Minneapolis Center
09:08AM 45.8875 -98.3425 288° West 154 177 10,200  Level Minneapolis Center
09:09AM 45.9006 -98.4008 288° West 153 176 10,200  Level Minneapolis Center
09:10AM 45.9136 -98.4594 288° West 154 177 10,200  Level Minneapolis Center
09:11AM 45.9319 -98.5289 291° West 154 177 10,200  Level Minneapolis Center
09:12AM 45.9567 -98.5939 299° West 153 176 10,200  Level Minneapolis Center
09:13AM 45.9750 -98.6528 294° West 156 180 10,200  Level Minneapolis Center
09:14AM 45.9906 -98.7139 290° West 159 183 10,200 -60 Level Minneapolis Center
09:15AM 46.0022 -98.7756 285° West 161 185 10,100  Descending Minneapolis Center
09:16AM 46.0111 -98.8342 282° West 158 182 10,200  Climbing Minneapolis Center
09:17AM 46.0258 -98.9042 287° West 155 178 10,100  Descending Minneapolis Center
09:18AM 46.0397 -98.9631 289° West 154 177 10,200  Climbing Minneapolis Center
09:19AM 46.0528 -99.0236 287° West 156 180 10,100 -60 Descending Minneapolis Center
09:20AM 46.0664 -99.0825 288° West 156 180 10,100  Level Minneapolis Center
09:21AM 46.0781 -99.1431 286° West 157 181 10,100  Level Minneapolis Center
09:22AM 46.0931 -99.2039 290° West 159 183 10,200 -60 Climbing Minneapolis Center
09:23AM 46.1086 -99.2797 287° West 161 185 10,000 -60 Descending Minneapolis Center
09:24AM 46.1189 -99.3350 285° West 156 180 10,100  Climbing Minneapolis Center
09:25AM 46.1317 -99.3933 288° West 154 177 10,000 -60 Descending Minneapolis Center
09:26AM 46.1444 -99.4544 287° West 155 178 10,000  Level Minneapolis Center
09:27AM 46.1567 -99.5111 287° West 154 177 10,100  Climbing Minneapolis Center
09:28AM 46.1689 -99.5706 287° West 154 177 10,100 -60 Level Minneapolis Center
09:30AM 46.1817 -99.6303 287° West 154 177 10,000  Descending Minneapolis Center
09:31AM 46.1964 -99.7033 286° West 156 180 10,100  Climbing Minneapolis Center
09:33AM 46.2206 -99.8211 287° West 154 177 10,000 -60 Descending Minneapolis Center
09:34AM 46.2347 -99.8856 288° West 153 176 10,000  Level Minneapolis Center
09:35AM 46.2458 -99.9422 286° West 156 180 10,000  Level Minneapolis Center
09:36AM 46.2581 -100.0022 286° West 160 184 10,100  Climbing Minneapolis Center
09:37AM 46.2736 -100.0756 287° West 160 184 10,100  Level Minneapolis Center
09:38AM 46.2867 -100.1369 287° West 160 184 10,100  Level Minneapolis Center
09:39AM 46.2986 -100.1989 286° West 160 184 10,100 -60 Level Minneapolis Center
09:40AM 46.3128 -100.2658 287° West 161 185 10,000  Descending Minneapolis Center
09:41AM 46.3242 -100.3256 285° West 164 189 10,100  Climbing Minneapolis Center
09:42AM 46.3394 -100.4028 286° West 166 191 10,100 -60 Level Minneapolis Center
09:43AM 46.3531 -100.4644 288° West 164 189 10,000  Descending Minneapolis Center
09:44AM 46.3675 -100.5403 285° West 165 190 10,100  Climbing Minneapolis Center
09:45AM 46.3806 -100.6028 287° West 164 189 10,100 -60 Level Minneapolis Center
09:46AM 46.3939 -100.6658 287° West 165 190 10,000 -60 Descending Minneapolis Center
09:47AM 46.4067 -100.7336 285° West 165 190 10,000  Level Minneapolis Center
09:48AM 46.4183 -100.7933 286° West 164 189 10,100  Climbing Minneapolis Center
09:49AM 46.4339 -100.8667 287° West 163 188 10,000 -60 Descending Minneapolis Center
09:50AM 46.4458 -100.9322 285° West 164 189 10,000  Level Minneapolis Center
09:51AM 46.4578 -100.9967 285° West 165 190 10,100  Climbing Minneapolis Center
09:52AM 46.4719 -101.0608 284° West 166 191 10,100  Level Minneapolis Center
09:53AM 46.4691 -101.0637 284° West  Level FlightAware Approximate
09:53AM 46.4833 -101.1242 285° West 165 190 10,100  Level Minneapolis Center
09:54AM 46.4953 -101.1869 285° West 164 189 10,000  Descending Minneapolis Center
09:56AM 46.5081 -101.2500 286° West 162 186 10,100  Climbing Minneapolis Center
09:57AM 46.5217 -101.3244 285° West 161 185 10,000 -60 Descending Minneapolis Center
09:58AM 46.5344 -101.3883 286° West 163 188 10,000  Level Minneapolis Center
09:59AM 46.5467 -101.4536 285° West 165 190 10,100  Climbing Minneapolis Center
10:00AM 46.5594 -101.5161 287° West 164 189 10,100  Level Minneapolis Center
10:01AM 46.5711 -101.5811 285° West 165 190 10,100 -60 Level Minneapolis Center
10:02AM 46.5864 -101.6522 287° West 163 188 10,000 -180 Descending Minneapolis Center
10:03AM 46.5967 -101.7167 283° West 162 186 9,800 -360 Descending Minneapolis Center
10:04AM 46.6114 -101.7869 287° West 177 204 9,300 -540 Descending Minneapolis Center
10:05AM 46.6247 -101.8606 285° West 185 213 8,800 -600 Descending Minneapolis Center
10:06AM 46.6400 -101.9431 285° West 192 221 8,100 -660 Descending Minneapolis Center
10:07AM 46.6542 -102.0208 285° West 194 223 7,500 -540 Descending Minneapolis Center
10:08AM 46.6714 -102.0994 288° West 200 230 7,000 -540 Descending Minneapolis Center
10:09AM 46.6867 -102.1753 286° West 199 229 6,400 -600 Descending Minneapolis Center
10:10AM 46.7011 -102.2506 286° West 196 226 5,800 -540 Descending Minneapolis Center
10:11AM 46.7150 -102.3258 285° West 194 223 5,300 -480 Descending Minneapolis Center
10:12AM 46.7278 -102.3994 284° West 192 221 4,900 -240 Descending Minneapolis Center
10:13AM 46.7389 -102.4697 283° West 186 214 4,900  Level Minneapolis Center
10:14AM 46.7542 -102.5519 285° West 181 208 4,900  Level Minneapolis Center
10:15AM 46.7681 -102.6236 286° West 176 203 4,900  Level Minneapolis Center